B10 weather

Bowman Field
Livermore Falls, Maine, United States

Public forecast

Using degrees Fahrenheit for public forecast. Weather courtesy of forecast.io.

Closest aviation weather report (METAR) to Bowman Field

Closest report is Augusta State Airport, 15.9 nm (29.5 km) ESE. Retrieved 2019/10/21 15:53 UTC (29 minutes ago):

KAUG 211553Z AUTO 06004KT 10SM CLR 14/08 A3013 RMK AO2 SLP206 T01440078

Closest aviation forecast (TAF) to Bowman Field

Closest forecast is Augusta State Airport, 15.9 nm (29.5 km) ESE. Retrieved 2019/10/21 12:39 UTC (4 hours ago):

TAF KAUG 211137Z 2112/2212 00000KT 1/2SM FG OVC002 FM211330 02004KT P6SM SKC FM220500 VRB04KT P6SM SCT015